Time;durP1;ratioP1;P1;durP2;ratioP2;P2;SDS_P1;SDS_P2;PMS_P1;PMS_P2;Temp;Humidity;BMP_temperature;BMP_pressure;BME280_temperature;BME280_humidity;BME280_pressure;Samples;Min_cycle;Max_cycle;Signal;HPM_P1;HPM_P2
2023/05/27 00:00:24;;;;;;;58.33;9.52;;;;;;;;;;6146504;23;20033;-59
2023/05/27 00:03:00;;;;;;;54.22;8.13;;;;;;;;;;6145835;23;20088;-53
2023/05/27 00:05:28;;;;;;;53.78;7.63;;;;;;;;;;6147045;23;20053;-50
2023/05/27 00:07:55;;;;;;;48.08;8.23;;;;;;;;;;6146595;23;20568;-54
2023/05/27 00:10:29;;;;;;;45.95;9.45;;;;;;;;;;6145594;23;20028;-53
2023/05/27 00:12:57;;;;;;;68.22;9.43;;;;;;;;;;6147155;23;20425;-53
2023/05/27 00:15:30;;;;;;;61.03;9.00;;;;;;;;;;6144261;23;20025;-51
2023/05/27 00:17:59;;;;;;;62.83;9.35;;;;;;;;;;6141466;23;20026;-50
2023/05/27 00:20:27;;;;;;;58.47;9.57;;;;;;;;;;6146434;23;20510;-52
2023/05/27 00:23:21;;;;;;;66.97;9.77;;;;;;;;;;6144267;23;20108;-66
2023/05/27 00:25:56;;;;;;;64.93;10.25;;;;;;;;;;6147448;23;20025;-66
2023/05/27 00:28:23;;;;;;;;;;;;;;;;;;6147170;23;20033;-66
2023/05/27 00:30:50;;;;;;;65.53;9.57;;;;;;;;;;6145592;23;19971;-66
2023/05/27 00:33:24;;;;;;;42.25;8.05;;;;;;;;;;6145903;23;20879;-59
2023/05/27 00:35:52;;;;;;;47.03;8.07;;;;;;;;;;6146649;23;20096;-59
2023/05/27 00:38:19;;;;;;;51.50;8.73;;;;;;;;;;6145513;23;20025;-59
2023/05/27 00:40:54;;;;;;;91.00;11.90;;;;;;;;;;6147222;23;20040;-59
2023/05/27 00:43:21;;;;;;;63.38;9.30;;;;;;;;;;6143578;23;20081;-60
2023/05/27 00:45:54;;;;;;;40.20;8.40;;;;;;;;;;6144597;23;20033;-59
2023/05/27 00:48:22;;;;;;;37.00;7.00;;;;;;;;;;6145409;23;20025;-59
2023/05/27 00:50:49;;;;;;;34.78;6.95;;;;;;;;;;6146288;23;20026;-59
2023/05/27 00:53:24;;;;;;;52.70;8.23;;;;;;;;;;6145570;23;20025;-59
2023/05/27 00:55:53;;;;;;;80.88;9.90;;;;;;;;;;6145852;23;20025;-60
2023/05/27 00:58:28;;;;;;;63.65;10.75;;;;;;;;;;6147354;23;20096;-58
2023/05/27 01:00:56;;;;;;;56.88;10.23;;;;;;;;;;6145016;23;20030;-50
2023/05/27 01:03:23;;;;;;;53.00;8.07;;;;;;;;;;6146470;23;20053;-59
2023/05/27 01:06:02;;;;;;;42.75;8.23;;;;;;;;;;6143191;23;20026;-59
2023/05/27 01:08:34;;;;;;;69.90;9.85;;;;;;;;;;6145707;23;20077;-59
2023/05/27 01:11:10;;;;;;;89.10;11.95;;;;;;;;;;6145452;23;20033;-59
2023/05/27 01:13:44;;;;;;;71.75;13.00;;;;;;;;;;6145001;23;20021;-59
2023/05/27 01:16:19;;;;;;;55.47;9.57;;;;;;;;;;6146125;23;20278;-59
2023/05/27 01:18:47;;;;;;;54.97;9.05;;;;;;;;;;6146271;23;20093;-58
2023/05/27 01:21:18;;;;;;;40.67;7.63;;;;;;;;;;6145135;23;20033;-59
2023/05/27 01:24:03;;;;;;;50.58;9.13;;;;;;;;;;6143297;23;20081;-59
2023/05/27 01:26:30;;;;;;;63.42;11.25;;;;;;;;;;6145655;23;20029;-59
2023/05/27 01:29:05;;;;;;;64.22;10.80;;;;;;;;;;6144602;23;20029;-59
2023/05/27 01:31:50;;;;;;;39.47;7.45;;;;;;;;;;6146643;23;20018;-48
2023/05/27 01:34:21;;;;;;;53.60;8.27;;;;;;;;;;6146194;23;20033;-53
2023/05/27 01:36:59;;;;;;;32.13;6.75;;;;;;;;;;6145558;23;20501;-49
2023/05/27 01:39:27;;;;;;;25.35;5.25;;;;;;;;;;6142645;23;20313;-53
2023/05/27 01:42:05;;;;;;;52.40;7.43;;;;;;;;;;6143755;23;20026;-49
2023/05/27 01:44:39;;;;;;;35.80;7.15;;;;;;;;;;6144458;23;20512;-53
2023/05/27 01:47:07;;;;;;;48.45;8.95;;;;;;;;;;6144857;23;20029;-65
2023/05/27 01:49:40;;;;;;;52.95;8.70;;;;;;;;;;6146218;23;20037;-64
2023/05/27 01:52:08;;;;;;;125.57;12.00;;;;;;;;;;6140934;23;20507;-65
2023/05/27 01:54:36;;;;;;;42.22;7.18;;;;;;;;;;6144469;23;20033;-66
2023/05/27 01:57:10;;;;;;;45.78;8.30;;;;;;;;;;6143586;23;20454;-59
2023/05/27 01:59:38;;;;;;;58.08;9.13;;;;;;;;;;6144783;23;20065;-66
2023/05/27 02:02:11;;;;;;;160.88;12.88;;;;;;;;;;6143481;23;20021;-66
2023/05/27 02:04:38;;;;;;;133.20;13.30;;;;;;;;;;6145212;23;20030;-66
2023/05/27 02:07:06;;;;;;;109.68;11.43;;;;;;;;;;6144718;23;20029;-66
2023/05/27 02:09:40;;;;;;;50.88;8.77;;;;;;;;;;6145220;23;20080;-66
2023/05/27 02:12:07;;;;;;;;;;;;;;;;;;6145091;23;20127;-66
2023/05/27 02:14:40;;;;;;;99.63;10.07;;;;;;;;;;6143715;23;20206;-66
2023/05/27 02:17:14;;;;;;;298.17;19.83;;;;;;;;;;6144586;23;20029;-49
2023/05/27 02:19:42;;;;;;;186.85;15.18;;;;;;;;;;6144970;23;20057;-47
2023/05/27 02:22:22;;;;;;;161.13;13.98;;;;;;;;;;6145469;23;20033;-48
2023/05/27 02:24:56;;;;;;;198.77;15.73;;;;;;;;;;6145691;23;20714;-66
2023/05/27 02:27:29;;;;;;;101.35;13.25;;;;;;;;;;6145966;23;20092;-55
2023/05/27 02:30:03;;;;;;;176.40;15.27;;;;;;;;;;6146762;23;20025;-52
2023/05/27 02:32:37;;;;;;;141.68;15.50;;;;;;;;;;6147758;23;20835;-52
2023/05/27 02:35:05;;;;;;;210.48;17.17;;;;;;;;;;6147154;23;20388;-52
2023/05/27 02:37:32;;;;;;;279.75;22.70;;;;;;;;;;6147231;23;20060;-50
2023/05/27 02:40:08;;;;;;;223.23;19.67;;;;;;;;;;6148361;23;20420;-51
2023/05/27 02:42:35;;;;;;;108.82;11.77;;;;;;;;;;6147493;23;20025;-52
2023/05/27 02:45:10;;;;;;;134.57;13.95;;;;;;;;;;6148551;23;20022;-65
2023/05/27 02:47:37;;;;;;;179.80;16.02;;;;;;;;;;6146171;23;20556;-65
2023/05/27 02:50:04;;;;;;;238.18;19.45;;;;;;;;;;6146651;23;20088;-65
2023/05/27 02:52:38;;;;;;;169.45;16.27;;;;;;;;;;6146985;23;20025;-65
2023/05/27 02:55:06;;;;;;;159.00;15.10;;;;;;;;;;6148053;23;20034;-52
2023/05/27 02:57:40;;;;;;;158.70;13.30;;;;;;;;;;6147436;23;20088;-56
2023/05/27 03:00:09;;;;;;;128.98;14.80;;;;;;;;;;6147778;23;20021;-57
2023/05/27 03:02:36;;;;;;;226.98;18.33;;;;;;;;;;6146391;23;20026;-57
2023/05/27 03:05:10;;;;;;;89.80;13.02;;;;;;;;;;6146941;23;20021;-55
2023/05/27 03:07:37;;;;;;;151.27;16.50;;;;;;;;;;6142814;23;20022;-56
2023/05/27 03:10:04;;;;;;;128.05;15.38;;;;;;;;;;6146621;23;20021;-57
2023/05/27 03:12:38;;;;;;;50.80;10.40;;;;;;;;;;6144025;23;20520;-51
2023/05/27 03:15:06;;;;;;;96.50;12.35;;;;;;;;;;6145677;23;20030;-50
2023/05/27 03:17:39;;;;;;;83.60;12.90;;;;;;;;;;6145390;23;20025;-50
2023/05/27 03:20:07;;;;;;;104.20;15.77;;;;;;;;;;6146145;23;20017;-53
2023/05/27 03:22:36;;;;;;;42.67;9.77;;;;;;;;;;6147473;23;20100;-57
2023/05/27 03:25:09;;;;;;;65.30;11.80;;;;;;;;;;6147253;23;20026;-59
2023/05/27 03:27:37;;;;;;;59.47;11.93;;;;;;;;;;6145908;23;20032;-59
2023/05/27 03:30:04;;;;;;;74.85;12.45;;;;;;;;;;6147152;23;20026;-59
2023/05/27 03:32:38;;;;;;;124.47;11.70;;;;;;;;;;6147821;23;20044;-59
2023/05/27 03:35:06;;;;;;;66.03;11.63;;;;;;;;;;6146538;23;20390;-58
2023/05/27 03:37:33;;;;;;;37.53;9.25;;;;;;;;;;6145594;23;20080;-59
2023/05/27 03:40:08;;;;;;;41.13;9.23;;;;;;;;;;6146422;23;20033;-51
2023/05/27 03:42:36;;;;;;;46.13;10.75;;;;;;;;;;6145684;23;20022;-51
2023/05/27 03:45:09;;;;;;;38.35;8.80;;;;;;;;;;6146605;23;20364;-48
2023/05/27 03:47:37;;;;;;;43.55;9.60;;;;;;;;;;6147411;23;20029;-50
2023/05/27 03:50:05;;;;;;;106.68;12.88;;;;;;;;;;6146679;23;20017;-48
2023/05/27 03:52:38;;;;;;;78.45;11.95;;;;;;;;;;6147467;23;20036;-47
2023/05/27 03:55:06;;;;;;;32.97;9.80;;;;;;;;;;6145374;23;20561;-52
2023/05/27 03:57:33;;;;;;;36.90;10.60;;;;;;;;;;6134421;23;20437;-53
2023/05/27 04:00:08;;;;;;;31.98;8.50;;;;;;;;;;6146764;23;20076;-53
2023/05/27 04:02:35;;;;;;;37.15;9.80;;;;;;;;;;6145064;23;20053;-49
2023/05/27 04:05:10;;;;;;;38.72;8.27;;;;;;;;;;6144205;23;20067;-53
2023/05/27 04:07:37;;;;;;;29.20;8.38;;;;;;;;;;6147477;23;20489;-50
2023/05/27 04:10:05;;;;;;;27.70;6.80;;;;;;;;;;6140912;23;20076;-60
2023/05/27 04:12:41;;;;;;;31.63;6.38;;;;;;;;;;6144428;23;20033;-59
2023/05/27 04:15:08;;;;;;;16.73;5.35;;;;;;;;;;6142558;23;20021;-57
2023/05/27 04:46:44;;;;;;;20.52;5.47;;;;;;;;;;6138100;23;20034;-58
2023/05/27 04:49:18;;;;;;;28.98;6.40;;;;;;;;;;6145317;23;20022;-52
2023/05/27 04:51:47;;;;;;;30.38;6.85;;;;;;;;;;6145829;23;20037;-56
2023/05/27 04:54:21;;;;;;;38.10;7.53;;;;;;;;;;6145321;23;20025;-54
2023/05/27 04:56:51;;;;;;;;;;;;;;;;;;6140381;23;21018;-57
2023/05/27 04:59:21;;;;;;;32.00;7.35;;;;;;;;;;6142630;23;19921;-56
2023/05/27 05:02:20;;;;;;;27.07;6.67;;;;;;;;;;6144354;23;20029;-56
2023/05/27 05:04:50;;;;;;;39.28;6.85;;;;;;;;;;6142877;23;20074;-56
2023/05/27 05:07:23;;;;;;;35.83;7.03;;;;;;;;;;6142067;23;20030;-48
2023/05/27 05:09:57;;;;;;;34.55;6.90;;;;;;;;;;6142575;23;20029;-49
2023/05/27 05:12:31;;;;;;;31.77;6.80;;;;;;;;;;6141194;23;20033;-49
2023/05/27 05:15:07;;;;;;;30.25;7.28;;;;;;;;;;6142304;23;20029;-49
2023/05/27 05:17:34;;;;;;;35.50;7.47;;;;;;;;;;6144176;23;20021;-48
2023/05/27 05:20:09;;;;;;;28.98;6.88;;;;;;;;;;6143446;23;20029;-49
2023/05/27 05:22:37;;;;;;;28.77;7.32;;;;;;;;;;6143857;23;20053;-51
2023/05/27 05:25:04;;;;;;;36.00;7.30;;;;;;;;;;6139579;23;20032;-50
2023/05/27 05:27:38;;;;;;;28.75;6.30;;;;;;;;;;6140510;23;20025;-56
2023/05/27 05:30:06;;;;;;;31.83;6.88;;;;;;;;;;6141755;23;20029;-58
2023/05/27 05:32:33;;;;;;;31.50;7.28;;;;;;;;;;6143854;23;20022;-55
2023/05/27 05:35:07;;;;;;;24.30;6.18;;;;;;;;;;6142712;23;20030;-51
2023/05/27 05:37:35;;;;;;;27.08;6.13;;;;;;;;;;6142875;23;20044;-55
2023/05/27 05:40:02;;;;;;;24.52;7.10;;;;;;;;;;6144668;23;20026;-53
2023/05/27 05:42:36;;;;;;;22.02;6.40;;;;;;;;;;6143079;23;20025;-56
2023/05/27 05:45:05;;;;;;;20.13;5.60;;;;;;;;;;6141230;23;20073;-54
2023/05/27 05:47:45;;;;;;;22.38;5.35;;;;;;;;;;6141926;23;20025;-56
2023/05/27 05:50:12;;;;;;;28.90;5.78;;;;;;;;;;6144561;23;20025;-52
2023/05/27 05:52:46;;;;;;;19.83;5.50;;;;;;;;;;6144401;23;20088;-56
2023/05/27 05:55:13;;;;;;;17.70;4.95;;;;;;;;;;6142521;23;20025;-56
2023/05/27 05:57:41;;;;;;;14.35;4.88;;;;;;;;;;6144504;23;20080;-54
2023/05/27 06:00:15;;;;;;;18.45;5.28;;;;;;;;;;6146160;23;20025;-55
2023/05/27 06:02:42;;;;;;;20.10;5.50;;;;;;;;;;6144177;23;20556;-65
2023/05/27 06:05:09;;;;;;;13.95;4.45;;;;;;;;;;6143456;23;20022;-65
2023/05/27 06:07:45;;;;;;;17.83;4.97;;;;;;;;;;6144214;23;20159;-65
2023/05/27 06:10:12;;;;;;;21.75;5.28;;;;;;;;;;6143330;23;20021;-64
2023/05/27 06:12:39;;;;;;;15.80;4.28;;;;;;;;;;6146757;23;20021;-65
2023/05/27 06:15:13;;;;;;;17.20;4.60;;;;;;;;;;6143678;23;20029;-65
2023/05/27 06:17:40;;;;;;;18.50;4.60;;;;;;;;;;6144978;23;20029;-64
2023/05/27 06:20:15;;;;;;;17.05;4.25;;;;;;;;;;6146141;23;20080;-64
2023/05/27 06:22:42;;;;;;;13.45;4.15;;;;;;;;;;6144485;23;20104;-59
2023/05/27 06:25:09;;;;;;;16.00;4.68;;;;;;;;;;6145263;23;20053;-60
2023/05/27 06:27:43;;;;;;;11.23;3.75;;;;;;;;;;6143652;23;20080;-60
2023/05/27 06:30:17;;;;;;;18.77;3.97;;;;;;;;;;6146144;23;20026;-60
2023/05/27 06:32:45;;;;;;;15.02;4.15;;;;;;;;;;6144829;23;20036;-48
2023/05/27 06:35:12;;;;;;;14.18;4.50;;;;;;;;;;6143182;23;20384;-64
2023/05/27 06:37:45;;;;;;;12.77;3.53;;;;;;;;;;6144633;23;20088;-64
2023/05/27 06:40:14;;;;;;;14.93;4.18;;;;;;;;;;6145778;23;20033;-64
2023/05/27 06:42:49;;;;;;;12.60;3.50;;;;;;;;;;6147144;23;20034;-64
2023/05/27 06:45:16;;;;;;;8.93;3.38;;;;;;;;;;6146363;23;20072;-64
2023/05/27 06:47:43;;;;;;;12.27;3.40;;;;;;;;;;6145321;23;20029;-64
2023/05/27 06:50:17;;;;;;;7.78;3.53;;;;;;;;;;6147286;23;20022;-57
2023/05/27 06:52:44;;;;;;;9.98;3.50;;;;;;;;;;6146972;23;20813;-54
2023/05/27 06:55:11;;;;;;;13.05;3.92;;;;;;;;;;6147347;23;20021;-56
2023/05/27 06:57:45;;;;;;;11.55;3.15;;;;;;;;;;6145479;23;20044;-56
2023/05/27 07:00:13;;;;;;;6.88;2.95;;;;;;;;;;6145818;23;20389;-63
2023/05/27 07:02:40;;;;;;;11.57;2.85;;;;;;;;;;6144498;23;20032;-47
2023/05/27 07:05:20;;;;;;;11.25;3.20;;;;;;;;;;6145707;23;20029;-46
2023/05/27 07:07:48;;;;;;;9.27;3.17;;;;;;;;;;6144856;23;20021;-49
2023/05/27 07:10:22;;;;;;;9.07;3.00;;;;;;;;;;6146198;23;20084;-49
2023/05/27 07:12:49;;;;;;;14.23;3.53;;;;;;;;;;6146751;23;20017;-52
2023/05/27 07:15:16;;;;;;;11.82;3.17;;;;;;;;;;6145034;23;20033;-51
2023/05/27 07:17:57;;;;;;;12.10;2.88;;;;;;;;;;6144606;23;20029;-50
2023/05/27 07:20:24;;;;;;;7.88;2.75;;;;;;;;;;6146877;23;20025;-52
2023/05/27 07:23:01;;;;;;;8.70;2.58;;;;;;;;;;6146956;23;20029;-48
2023/05/27 07:25:28;;;;;;;8.45;3.05;;;;;;;;;;6146115;23;20021;-50
2023/05/27 07:27:55;;;;;;;9.75;3.33;;;;;;;;;;6121597;23;20072;-62
2023/05/27 07:30:30;;;;;;;7.32;2.38;;;;;;;;;;6146572;23;20026;-52
2023/05/27 07:32:57;;;;;;;5.95;2.35;;;;;;;;;;6141983;23;20032;-57
2023/05/27 07:35:31;;;;;;;11.95;4.43;;;;;;;;;;6145940;23;20060;-57
2023/05/27 07:38:00;;;;;;;9.70;4.20;;;;;;;;;;6144747;23;20033;-56
2023/05/27 07:40:27;;;;;;;5.55;2.28;;;;;;;;;;6146569;23;20021;-57
2023/05/27 07:43:02;;;;;;;6.80;2.20;;;;;;;;;;6145809;23;20029;-56
2023/05/27 07:45:30;;;;;;;4.88;1.90;;;;;;;;;;6145814;23;20091;-54
2023/05/27 07:47:57;;;;;;;5.30;2.10;;;;;;;;;;6145021;23;20033;-52
2023/05/27 07:50:30;;;;;;;4.68;1.88;;;;;;;;;;6146527;23;20080;-53
2023/05/27 07:52:58;;;;;;;3.83;1.63;;;;;;;;;;6145996;23;20052;-54
2023/05/27 07:55:32;;;;;;;3.17;1.83;;;;;;;;;;6145259;23;20052;-49
2023/05/27 07:57:59;;;;;;;4.82;1.35;;;;;;;;;;6146564;23;20021;-63
2023/05/27 08:00:26;;;;;;;3.38;1.50;;;;;;;;;;6146311;23;20066;-63
2023/05/27 08:03:00;;;;;;;4.32;1.50;;;;;;;;;;6143122;23;20025;-64
2023/05/27 08:05:27;;;;;;;;;;;;;;;;;;6146380;23;20025;-63
2023/05/27 08:08:00;;;;;;;3.03;1.50;;;;;;;;;;6137354;23;20368;-62
2023/05/27 08:10:28;;;;;;;4.57;1.25;;;;;;;;;;6144727;23;20025;-64
2023/05/27 08:12:55;;;;;;;6.70;1.60;;;;;;;;;;6144029;23;20021;-64
2023/05/27 08:15:28;;;;;;;6.00;1.75;;;;;;;;;;6146798;23;20500;-52
2023/05/27 08:17:55;;;;;;;3.17;1.13;;;;;;;;;;6146072;23;20021;-53
2023/05/27 08:20:29;;;;;;;3.30;1.35;;;;;;;;;;6144484;23;20076;-51
2023/05/27 08:22:57;;;;;;;5.25;2.00;;;;;;;;;;6144714;23;20029;-53
2023/05/27 08:25:24;;;;;;;2.92;1.23;;;;;;;;;;6145646;23;20362;-58
2023/05/27 08:28:01;;;;;;;7.55;2.30;;;;;;;;;;6145536;23;20034;-55
2023/05/27 08:30:29;;;;;;;6.82;1.92;;;;;;;;;;6147014;23;20025;-57
2023/05/27 08:33:03;;;;;;;4.22;1.88;;;;;;;;;;6146491;23;20092;-55
2023/05/27 08:35:31;;;;;;;7.65;1.80;;;;;;;;;;6145862;23;20017;-56
2023/05/27 08:37:58;;;;;;;4.38;1.88;;;;;;;;;;6142108;23;20286;-57
2023/05/27 08:40:32;;;;;;;5.07;2.00;;;;;;;;;;6146748;23;20022;-57
2023/05/27 08:42:59;;;;;;;4.13;1.80;;;;;;;;;;6146022;23;20485;-63
2023/05/27 08:45:26;;;;;;;4.53;1.70;;;;;;;;;;6146236;23;20413;-64
2023/05/27 08:48:08;;;;;;;5.70;2.08;;;;;;;;;;6136500;23;20049;-63
2023/05/27 08:50:36;;;;;;;7.85;2.13;;;;;;;;;;6134802;23;20076;-63
2023/05/27 08:53:10;;;;;;;3.40;1.90;;;;;;;;;;6144457;23;20389;-54
2023/05/27 08:55:38;;;;;;;5.35;1.92;;;;;;;;;;6145230;23;20025;-56
2023/05/27 08:58:06;;;;;;;9.85;2.38;;;;;;;;;;6146000;23;20029;-57
2023/05/27 09:00:39;;;;;;;4.20;2.08;;;;;;;;;;6145772;23;20021;-58
2023/05/27 09:03:07;;;;;;;4.85;1.83;;;;;;;;;;6143732;23;20037;-57
2023/05/27 09:05:40;;;;;;;6.82;2.03;;;;;;;;;;6144082;23;20025;-58
2023/05/27 09:08:09;;;;;;;8.15;2.72;;;;;;;;;;6144431;23;20029;-58
2023/05/27 09:10:40;;;;;;;6.55;2.40;;;;;;;;;;6145707;23;20204;-57
2023/05/27 09:13:14;;;;;;;8.68;2.78;;;;;;;;;;6144136;23;20021;-52
2023/05/27 09:15:41;;;;;;;5.70;2.60;;;;;;;;;;6143255;23;20567;-52
2023/05/27 09:18:09;;;;;;;8.90;2.65;;;;;;;;;;6143176;23;20025;-49
2023/05/27 09:20:43;;;;;;;9.63;3.00;;;;;;;;;;6144179;23;20025;-52
2023/05/27 09:23:11;;;;;;;6.75;2.58;;;;;;;;;;6144229;23;20021;-57
2023/05/27 09:25:38;;;;;;;6.80;3.10;;;;;;;;;;6143421;23;20025;-57
2023/05/27 09:28:13;;;;;;;10.65;3.28;;;;;;;;;;6145827;23;20021;-57
2023/05/27 09:30:40;;;;;;;12.75;3.58;;;;;;;;;;6145694;23;20026;-57
2023/05/27 09:33:08;;;;;;;;;;;;;;;;;;6143870;23;20088;-57
2023/05/27 09:35:42;;;;;;;9.65;3.25;;;;;;;;;;6143296;23;20412;-56
2023/05/27 09:38:10;;;;;;;;;;;;;;;;;;6145161;23;20029;-57
2023/05/27 09:40:47;;;;;;;10.38;3.38;;;;;;;;;;6144804;23;20514;-51
2023/05/27 09:43:18;;;;;;;11.77;3.53;;;;;;;;;;6144774;23;20064;-49
2023/05/27 09:45:55;;;;;;;10.55;3.17;;;;;;;;;;6143309;23;20029;-48
2023/05/27 09:48:38;;;;;;;12.10;3.70;;;;;;;;;;6143024;23;20026;-53
2023/05/27 09:51:06;;;;;;;9.65;3.53;;;;;;;;;;6143868;23;20029;-58
2023/05/27 09:53:40;;;;;;;14.35;3.83;;;;;;;;;;6143843;23;20029;-57
2023/05/27 09:56:08;;;;;;;11.88;3.88;;;;;;;;;;6145609;23;20354;-57
2023/05/27 09:58:35;;;;;;;12.35;3.78;;;;;;;;;;6143555;23;20508;-57
2023/05/27 10:01:10;;;;;;;12.38;3.92;;;;;;;;;;6145074;23;20548;-56
2023/05/27 10:03:45;;;;;;;18.88;4.07;;;;;;;;;;6144710;23;20025;-57
2023/05/27 10:06:19;;;;;;;10.93;3.45;;;;;;;;;;6144432;23;20026;-57
2023/05/27 10:08:46;;;;;;;13.00;3.75;;;;;;;;;;6144266;23;20022;-53
2023/05/27 10:11:21;;;;;;;10.95;3.70;;;;;;;;;;6145200;23;20096;-53
2023/05/27 10:13:48;;;;;;;15.38;3.80;;;;;;;;;;6144175;23;20031;-50
2023/05/27 10:16:21;;;;;;;17.02;4.72;;;;;;;;;;6144541;23;20485;-52
2023/05/27 10:18:56;;;;;;;14.35;3.83;;;;;;;;;;6144642;23;20025;-57
2023/05/27 10:21:24;;;;;;;12.98;4.07;;;;;;;;;;6145499;23;20068;-57
2023/05/27 10:23:58;;;;;;;12.00;4.28;;;;;;;;;;6143051;23;20025;-57
2023/05/27 10:26:36;;;;;;;20.08;4.45;;;;;;;;;;6141662;23;20037;-57
2023/05/27 10:29:10;;;;;;;17.38;4.63;;;;;;;;;;6142900;23;20033;-58
2023/05/27 10:31:58;;;;;;;17.23;4.60;;;;;;;;;;6143038;23;20018;-58
2023/05/27 10:34:35;;;;;;;20.20;4.88;;;;;;;;;;6143533;23;20028;-58
2023/05/27 10:37:03;;;;;;;21.45;4.20;;;;;;;;;;6144005;23;20084;-63
2023/05/27 10:39:30;;;;;;;15.25;4.18;;;;;;;;;;6141615;23;20301;-63
2023/05/27 10:42:04;;;;;;;12.93;4.57;;;;;;;;;;6141078;23;20033;-62
2023/05/27 10:44:40;;;;;;;14.70;4.07;;;;;;;;;;6142437;23;20434;-63
2023/05/27 10:47:14;;;;;;;16.13;4.60;;;;;;;;;;6141990;23;20030;-54
2023/05/27 10:49:57;;;;;;;14.73;4.15;;;;;;;;;;6145140;23;20446;-50
2023/05/27 10:52:31;;;;;;;15.95;4.75;;;;;;;;;;6145315;23;20026;-56
2023/05/27 10:55:06;;;;;;;21.52;5.07;;;;;;;;;;6145319;23;20026;-57
2023/05/27 10:57:33;;;;;;;17.85;4.30;;;;;;;;;;6145788;23;20026;-57
2023/05/27 11:00:08;;;;;;;15.48;5.38;;;;;;;;;;6144476;23;20101;-56
2023/05/27 11:02:43;;;;;;;16.98;4.50;;;;;;;;;;6145331;23;20085;-55
2023/05/27 11:05:11;;;;;;;13.02;4.38;;;;;;;;;;6144438;23;20109;-57
2023/05/27 11:07:41;;;;;;;15.60;4.38;;;;;;;;;;6144422;23;20025;-56
2023/05/27 11:10:15;;;;;;;14.23;4.90;;;;;;;;;;6145289;23;20426;-55
2023/05/27 11:12:49;;;;;;;17.15;4.93;;;;;;;;;;6142562;23;20505;-56
2023/05/27 11:15:23;;;;;;;14.57;4.20;;;;;;;;;;6145551;23;20422;-64
2023/05/27 11:17:51;;;;;;;14.75;4.63;;;;;;;;;;6143719;23;20033;-51
2023/05/27 11:20:18;;;;;;;14.25;4.40;;;;;;;;;;6143148;23;20569;-54
2023/05/27 11:22:52;;;;;;;17.77;5.00;;;;;;;;;;6144346;23;20021;-54
2023/05/27 11:25:19;;;;;;;19.52;4.95;;;;;;;;;;6143155;23;20080;-52
2023/05/27 11:27:53;;;;;;;11.52;3.90;;;;;;;;;;6145370;23;20026;-51
2023/05/27 11:30:24;;;;;;;11.40;4.30;;;;;;;;;;6142223;23;20026;-53
2023/05/27 11:32:52;;;;;;;17.80;4.30;;;;;;;;;;6145319;23;20021;-52
2023/05/27 11:35:29;;;;;;;15.55;4.00;;;;;;;;;;6147630;23;20030;-55
2023/05/27 11:37:57;;;;;;;11.95;3.80;;;;;;;;;;6145226;23;20026;-55
2023/05/27 11:40:35;;;;;;;13.93;4.75;;;;;;;;;;6143589;23;20084;-56
2023/05/27 11:43:02;;;;;;;14.30;4.05;;;;;;;;;;6143963;23;20022;-56
2023/05/27 11:45:31;;;;;;;17.27;4.20;;;;;;;;;;6145288;23;20085;-63
2023/05/27 11:48:11;;;;;;;15.73;3.90;;;;;;;;;;6141671;23;20029;-58
2023/05/27 11:50:47;;;;;;;14.75;3.67;;;;;;;;;;6143193;23;20028;-57
2023/05/27 11:53:21;;;;;;;13.35;3.70;;;;;;;;;;6144491;23;20489;-57
2023/05/27 11:55:48;;;;;;;16.67;4.43;;;;;;;;;;6142840;23;20161;-57
2023/05/27 11:58:15;;;;;;;12.40;4.30;;;;;;;;;;6145942;23;20036;-57
2023/05/27 12:00:50;;;;;;;16.42;4.32;;;;;;;;;;6142928;23;20057;-57
2023/05/27 12:03:17;;;;;;;10.43;3.45;;;;;;;;;;6145739;23;20092;-63
2023/05/27 12:05:44;;;;;;;11.70;4.18;;;;;;;;;;6144301;23;20057;-63
2023/05/27 12:08:19;;;;;;;13.95;4.40;;;;;;;;;;6143580;23;20052;-63
2023/05/27 12:10:50;;;;;;;15.93;4.80;;;;;;;;;;6144715;23;20073;-63
2023/05/27 12:13:24;;;;;;;11.43;4.20;;;;;;;;;;6147148;23;20032;-57
2023/05/27 12:15:51;;;;;;;14.77;4.65;;;;;;;;;;6144927;23;20072;-52
2023/05/27 12:18:25;;;;;;;11.85;4.40;;;;;;;;;;6145041;23;20064;-48
2023/05/27 12:20:52;;;;;;;11.50;4.22;;;;;;;;;;6143867;23;20029;-52
2023/05/27 12:23:19;;;;;;;15.98;4.57;;;;;;;;;;6144824;23;20092;-51
2023/05/27 12:25:54;;;;;;;16.27;4.43;;;;;;;;;;6145282;23;20029;-53
2023/05/27 12:28:21;;;;;;;;;;;;;;;;;;6145913;23;20033;-50
2023/05/27 12:30:55;;;;;;;15.23;4.60;;;;;;;;;;6145637;23;19920;-57
2023/05/27 12:33:23;;;;;;;14.45;3.80;;;;;;;;;;6144697;23;20032;-58
2023/05/27 12:35:51;;;;;;;16.13;4.28;;;;;;;;;;6145317;23;20033;-58
2023/05/27 12:38:24;;;;;;;14.57;4.32;;;;;;;;;;6142109;23;20025;-58
2023/05/27 12:40:52;;;;;;;12.73;3.78;;;;;;;;;;6145788;23;20025;-58
2023/05/27 12:43:26;;;;;;;13.35;4.47;;;;;;;;;;6145601;23;20022;-59
2023/05/27 12:45:53;;;;;;;14.63;4.10;;;;;;;;;;6145192;23;20030;-52
2023/05/27 12:48:21;;;;;;;13.65;4.00;;;;;;;;;;6139293;23;20026;-52
2023/05/27 12:51:01;;;;;;;14.38;3.80;;;;;;;;;;6145190;23;20686;-53
2023/05/27 12:53:28;;;;;;;13.35;3.78;;;;;;;;;;6142002;23;20100;-50
2023/05/27 12:56:03;;;;;;;11.88;4.03;;;;;;;;;;6144354;23;20025;-54
2023/05/27 12:58:30;;;;;;;14.60;4.15;;;;;;;;;;6144476;23;20080;-52
2023/05/27 13:00:57;;;;;;;15.93;4.13;;;;;;;;;;6146972;23;20025;-63
2023/05/27 13:03:30;;;;;;;14.35;3.67;;;;;;;;;;6144962;23;20026;-63
2023/05/27 13:05:58;;;;;;;13.55;4.03;;;;;;;;;;6145199;23;20104;-64
2023/05/27 13:08:33;;;;;;;13.43;3.80;;;;;;;;;;6143875;23;20026;-63
2023/05/27 13:11:00;;;;;;;14.93;3.88;;;;;;;;;;6142558;23;20279;-53
2023/05/27 13:13:28;;;;;;;15.60;4.68;;;;;;;;;;6144593;23;20394;-54
2023/05/27 13:16:03;;;;;;;12.25;3.97;;;;;;;;;;6144976;23;20033;-55
2023/05/27 13:18:30;;;;;;;;;;;;;;;;;;6144416;23;20053;-56
2023/05/27 13:21:04;;;;;;;10.57;3.75;;;;;;;;;;6144582;23;19980;-54
2023/05/27 13:23:31;;;;;;;14.07;4.00;;;;;;;;;;6145430;23;20077;-55
2023/05/27 13:25:58;;;;;;;11.45;3.88;;;;;;;;;;6143677;23;20446;-55
2023/05/27 13:28:33;;;;;;;14.35;4.22;;;;;;;;;;6144798;23;20179;-63
2023/05/27 13:31:00;;;;;;;17.27;4.25;;;;;;;;;;6145412;23;20041;-63
2023/05/27 13:33:35;;;;;;;11.80;4.07;;;;;;;;;;6144224;23;20485;-63
2023/05/27 13:36:02;;;;;;;13.48;3.85;;;;;;;;;;6144605;23;20026;-63
2023/05/27 13:38:30;;;;;;;13.95;4.10;;;;;;;;;;6144443;23;20033;-58
2023/05/27 13:41:04;;;;;;;13.23;3.95;;;;;;;;;;6143050;23;20025;-64
2023/05/27 13:43:31;;;;;;;14.02;4.20;;;;;;;;;;6144522;23;20354;-63
2023/05/27 13:45:58;;;;;;;10.55;3.70;;;;;;;;;;6145857;23;20029;-63
2023/05/27 13:48:45;;;;;;;13.43;3.83;;;;;;;;;;6144777;23;20024;-64
2023/05/27 13:51:19;;;;;;;15.45;4.20;;;;;;;;;;6145145;23;20028;-63
2023/05/27 13:53:54;;;;;;;15.93;3.90;;;;;;;;;;6145728;23;20060;-63
2023/05/27 13:56:27;;;;;;;11.38;3.72;;;;;;;;;;6145970;23;20021;-54
2023/05/27 13:58:55;;;;;;;13.27;3.40;;;;;;;;;;6141546;23;20030;-54
2023/05/27 14:01:22;;;;;;;12.05;4.13;;;;;;;;;;6145331;23;20029;-50
2023/05/27 14:03:56;;;;;;;13.50;3.92;;;;;;;;;;6144210;23;20060;-52
2023/05/27 14:06:24;;;;;;;10.98;3.75;;;;;;;;;;6145799;23;20032;-55
2023/05/27 14:08:51;;;;;;;;;;;;;;;;;;6145292;23;20029;-55
2023/05/27 14:11:25;;;;;;;13.20;4.10;;;;;;;;;;6144697;23;19917;-59
2023/05/27 14:13:56;;;;;;;11.00;4.35;;;;;;;;;;6143669;23;20212;-58
2023/05/27 14:16:30;;;;;;;16.08;4.50;;;;;;;;;;6145141;23;20025;-58
2023/05/27 14:18:57;;;;;;;13.82;3.95;;;;;;;;;;6144127;23;20027;-59
2023/05/27 14:21:24;;;;;;;15.15;4.57;;;;;;;;;;6144799;23;20025;-58
2023/05/27 14:23:59;;;;;;;16.90;3.70;;;;;;;;;;6146822;23;20029;-59
2023/05/27 14:26:27;;;;;;;17.52;4.55;;;;;;;;;;6146258;23;20171;-57
2023/05/27 14:29:02;;;;;;;17.63;4.93;;;;;;;;;;6142996;23;20445;-57
2023/05/27 14:31:30;;;;;;;17.70;4.93;;;;;;;;;;6147475;23;20022;-57
2023/05/27 14:33:57;;;;;;;16.02;5.03;;;;;;;;;;6145563;23;20124;-57
2023/05/27 14:36:31;;;;;;;17.08;4.25;;;;;;;;;;6146027;23;20032;-62
2023/05/27 14:38:58;;;;;;;14.52;4.60;;;;;;;;;;6146187;23;20021;-56
2023/05/27 14:41:33;;;;;;;14.05;4.45;;;;;;;;;;6145319;23;20446;-55
2023/05/27 14:44:00;;;;;;;13.60;4.60;;;;;;;;;;6144953;23;20481;-54
2023/05/27 14:46:27;;;;;;;16.33;4.80;;;;;;;;;;6146436;23;20025;-55
2023/05/27 14:49:13;;;;;;;16.00;4.32;;;;;;;;;;6144803;23;20312;-55
2023/05/27 14:51:47;;;;;;;12.93;4.22;;;;;;;;;;6144691;23;20524;-55
2023/05/27 14:54:21;;;;;;;13.40;3.90;;;;;;;;;;6146807;23;20477;-53
2023/05/27 14:56:49;;;;;;;16.95;4.45;;;;;;;;;;6145822;23;20037;-53
2023/05/27 14:59:16;;;;;;;11.93;4.43;;;;;;;;;;6140584;23;20040;-53
2023/05/27 15:01:50;;;;;;;15.10;4.28;;;;;;;;;;6143921;23;20084;-55
2023/05/27 15:04:17;;;;;;;13.85;4.13;;;;;;;;;;6143734;23;20025;-57
2023/05/27 15:06:51;;;;;;;12.60;4.07;;;;;;;;;;6146024;23;20409;-63
2023/05/27 15:09:19;;;;;;;13.13;4.03;;;;;;;;;;6143588;23;20033;-62
2023/05/27 15:11:46;;;;;;;17.90;3.92;;;;;;;;;;6144891;23;20342;-62
2023/05/27 15:14:20;;;;;;;16.80;4.43;;;;;;;;;;6145239;23;20026;-62
2023/05/27 15:16:47;;;;;;;13.32;4.20;;;;;;;;;;6140976;23;20033;-62
2023/05/27 15:19:21;;;;;;;14.02;3.85;;;;;;;;;;6140930;23;20033;-63
2023/05/27 15:21:55;;;;;;;14.65;3.90;;;;;;;;;;6143828;23;20097;-59
2023/05/27 15:24:22;;;;;;;;;;;;;;;;;;6143332;23;20036;-58